Main page
METAR-TAF:

METAR-TAF

Airports :

Waterford Airport

Waterford, Ireland

latitude: 52-11-14N, longitude: 7-05-13W, elevation: 36 m

Current weather observation

The report was made 9 hours and 29 minutes ago, at 20:30 UTC
Wind 10 kt from the Northwest, varying between West and North/Northwest
Temperature 7°C
Humidity 70%
Pressure 1022 hPa
Visibility 10 km or more
no clouds below 1500 m and no cumulonimbus

METAR: EIWF 162030Z 31010KT 270V340 CAVOK 07/02 Q1022

Time: 05:59 (05:59 UTC)

Forecast

The report was made 59 minutes ago, at 05:00 UTC
Forecast valid from 17 at 06 UTC to 17 at 15 UTC
Wind 8 kt from the West
Visibility 10 km or more
Few clouds at a height of 3000 ft

TAF: EIWF 170500Z 1706/1715 28008KT 9999 FEW030

Weather observations and forecasts of more than 4000 airports (METAR and TAF reports).

The available stations are represented by yellow and red dots on the map.

Hover mouse over dot to see the name of the station.

Then click to see weather observations and forecasts.

To change the map : click on the green buttons with a black cross to zoom in, on the green button with a dash to zoom out, or on the green arrows for adjacent maps.


METAR-TAF: